createdAt,value
2022-10-31T00:00:31.046Z,12.15
2022-10-31T00:05:58.781Z,12.27
2022-10-31T00:11:35.330Z,12.28
2022-10-31T00:14:23.349Z,12.29
2022-10-31T00:17:11.539Z,12.21
2022-10-31T00:22:50.767Z,12.19
2022-10-31T00:25:41.892Z,12.17
2022-10-31T00:31:17.775Z,12.17
2022-10-31T00:34:08.858Z,12.13
2022-10-31T00:39:49.441Z,12.11
2022-10-31T00:42:37.994Z,12.04
2022-10-31T00:48:17.471Z,11.98
2022-10-31T00:53:47.599Z,11.98
2022-10-31T00:56:36.434Z,11.84
2022-10-31T01:02:06.415Z,11.86
2022-10-31T01:04:57.805Z,11.82
2022-10-31T01:07:46.886Z,11.82
2022-10-31T01:13:16.349Z,11.89
2022-10-31T01:16:07.130Z,11.91
2022-10-31T01:21:42.123Z,11.82
2022-10-31T01:27:17.729Z,11.73
2022-10-31T01:30:09.297Z,11.67
2022-10-31T01:35:44.958Z,11.88
2022-10-31T01:38:33.381Z,11.71
2022-10-31T01:41:26.677Z,11.49
2022-10-31T01:44:50.499Z,11.50
2022-10-31T01:50:33.662Z,11.56
2022-10-31T01:53:25.960Z,11.70
2022-10-31T01:58:56.054Z,11.26
2022-10-31T02:01:44.090Z,11.27
2022-10-31T02:07:22.586Z,11.37
2022-10-31T02:12:56.273Z,11.31
2022-10-31T02:18:31.473Z,11.34
2022-10-31T02:24:33.656Z,11.45
2022-10-31T02:30:24.492Z,11.27
2022-10-31T02:35:59.864Z,11.26
2022-10-31T02:41:43.151Z,11.27
2022-10-31T02:44:34.331Z,11.13
2022-10-31T02:50:08.521Z,11.13
2022-10-31T02:55:58.592Z,11.13
2022-10-31T03:05:00.197Z,11.26
2022-10-31T03:07:54.661Z,11.06
2022-10-31T03:16:21.250Z,10.97
2022-10-31T03:21:59.760Z,11.15
2022-10-31T03:27:39.299Z,10.98
2022-10-31T03:33:10.589Z,10.98
2022-10-31T03:38:46.233Z,10.93
2022-10-31T03:44:26.785Z,10.94
2022-10-31T03:49:54.225Z,11.05
2022-10-31T03:55:47.245Z,10.81
2022-10-31T04:01:22.854Z,10.78
2022-10-31T04:04:11.680Z,10.74
2022-10-31T04:07:01.941Z,10.76
2022-10-31T04:12:41.070Z,10.71
2022-10-31T04:15:30.910Z,10.64
2022-10-31T04:21:06.778Z,10.50
2022-10-31T04:23:54.879Z,10.47
2022-10-31T04:26:44.188Z,10.52
2022-10-31T04:32:19.931Z,10.62
2022-10-31T04:40:43.374Z,10.53
2022-10-31T04:43:32.724Z,10.58
2022-10-31T04:49:06.218Z,10.45
2022-10-31T04:51:55.673Z,10.34
2022-10-31T04:54:44.065Z,10.34
2022-10-31T05:00:31.715Z,10.33
2022-10-31T05:03:20.002Z,10.27
2022-10-31T05:06:08.657Z,10.22
2022-10-31T05:11:44.971Z,10.28
2022-10-31T05:14:34.087Z,10.20
2022-10-31T05:17:21.883Z,10.09
2022-10-31T05:22:55.242Z,10.17
2022-10-31T05:31:14.948Z,10.11
2022-10-31T05:37:05.595Z,9.98
2022-10-31T05:39:54.849Z,9.85
2022-10-31T05:45:27.265Z,9.86
2022-10-31T05:51:03.247Z,9.72
2022-10-31T05:53:51.529Z,9.63
2022-10-31T05:57:01.314Z,9.75
2022-10-31T05:59:54.767Z,9.80
2022-10-31T06:05:20.170Z,9.88
2022-10-31T06:08:09.144Z,9.82
2022-10-31T06:13:44.909Z,9.98
2022-10-31T06:19:15.894Z,9.92
2022-10-31T06:22:04.236Z,9.93
2022-10-31T06:27:34.816Z,10.08
2022-10-31T06:33:11.773Z,10.16
2022-10-31T06:41:32.528Z,10.29
2022-10-31T06:44:20.919Z,10.24
2022-10-31T06:49:59.485Z,10.30
2022-10-31T06:55:53.428Z,10.47
2022-10-31T07:01:21.990Z,10.51
2022-10-31T07:06:53.956Z,10.58
2022-10-31T07:09:41.931Z,10.53
2022-10-31T07:15:18.189Z,10.80
2022-10-31T07:20:55.496Z,10.89
2022-10-31T07:23:44.526Z,11.00
2022-10-31T07:29:16.957Z,11.27
2022-10-31T07:34:48.202Z,11.36
2022-10-31T07:43:20.723Z,11.78
2022-10-31T07:48:55.006Z,12.09
2022-10-31T07:54:25.008Z,12.28
2022-10-31T08:00:01.571Z,12.56
2022-10-31T08:05:38.298Z,12.34
2022-10-31T08:11:14.663Z,12.66
2022-10-31T08:16:46.303Z,12.25
2022-10-31T08:22:16.999Z,12.72
2022-10-31T08:27:45.856Z,13.14
2022-10-31T08:33:15.933Z,13.45
2022-10-31T08:39:01.992Z,13.59
2022-10-31T08:44:33.438Z,13.63
2022-10-31T08:50:11.025Z,13.74
2022-10-31T08:55:42.342Z,13.84
2022-10-31T09:01:10.423Z,13.51
2022-10-31T09:03:59.457Z,13.68
2022-10-31T09:12:25.535Z,14.10
2022-10-31T09:15:14.204Z,14.08
2022-10-31T09:18:03.281Z,14.20
2022-10-31T09:20:52.354Z,14.31
2022-10-31T09:26:21.862Z,14.58
2022-10-31T09:29:10.935Z,14.65
2022-10-31T09:34:47.191Z,14.88
2022-10-31T09:40:19.620Z,15.17
2022-10-31T09:46:02.334Z,15.38
2022-10-31T09:51:53.322Z,15.46
2022-10-31T09:57:37.501Z,15.79
2022-10-31T10:03:11.646Z,15.81
2022-10-31T10:08:40.707Z,15.59
2022-10-31T10:14:34.092Z,15.50
2022-10-31T10:23:37.302Z,15.69
2022-10-31T10:29:21.487Z,15.53
2022-10-31T10:32:12.766Z,15.22
2022-10-31T10:37:44.445Z,15.17
2022-10-31T10:40:35.999Z,15.06
2022-10-31T10:49:21.674Z,15.13
2022-10-31T10:55:04.260Z,15.19
2022-10-31T10:58:00.729Z,15.19
2022-10-31T11:03:36.816Z,15.20
2022-10-31T11:06:27.053Z,15.20
2022-10-31T11:12:10.426Z,15.30
2022-10-31T11:17:54.515Z,15.39
2022-10-31T11:20:42.656Z,15.34
2022-10-31T11:26:23.564Z,15.67
2022-10-31T11:32:05.241Z,15.82
2022-10-31T11:37:46.647Z,15.98
2022-10-31T11:43:18.049Z,16.43
2022-10-31T11:48:55.769Z,16.88
2022-10-31T11:54:29.945Z,17.28
2022-10-31T11:57:39.879Z,17.19
2022-10-31T12:03:52.504Z,17.37
2022-10-31T12:09:31.552Z,17.50
2022-10-31T12:18:55.360Z,17.88
2022-10-31T12:25:20.666Z,18.19
2022-10-31T12:31:44.054Z,17.92
2022-10-31T12:37:53.525Z,18.04
2022-10-31T12:40:53.631Z,17.97
2022-10-31T12:43:47.252Z,18.04
2022-10-31T12:49:43.274Z,18.06
2022-10-31T12:55:49.173Z,18.08
2022-10-31T13:01:26.566Z,18.11
2022-10-31T13:07:10.847Z,18.22
2022-10-31T13:13:00.545Z,18.17
2022-10-31T13:18:33.164Z,18.18
2022-10-31T13:27:01.173Z,18.00
2022-10-31T13:32:44.877Z,17.96
2022-10-31T13:38:30.632Z,18.01
2022-10-31T13:44:12.922Z,18.13
2022-10-31T13:49:48.995Z,18.06
2022-10-31T13:52:38.989Z,17.97
2022-10-31T13:55:42.053Z,18.05
2022-10-31T13:58:31.696Z,17.88
2022-10-31T14:01:23.132Z,18.03
2022-10-31T14:07:14.893Z,18.01
2022-10-31T14:12:55.913Z,18.02
2022-10-31T14:15:47.764Z,17.77
2022-10-31T14:18:38.532Z,17.64
2022-10-31T14:21:32.518Z,17.65
2022-10-31T14:24:35.419Z,17.69
2022-10-31T14:30:40.377Z,17.62
2022-10-31T14:33:29.602Z,17.66
2022-10-31T14:39:08.803Z,17.55
2022-10-31T14:45:10.690Z,17.50
2022-10-31T14:51:00.617Z,17.44
2022-10-31T14:56:34.311Z,17.38
2022-10-31T15:05:23.246Z,16.97
2022-10-31T15:08:18.598Z,16.78
2022-10-31T15:11:15.824Z,16.67
2022-10-31T15:16:48.595Z,16.68
2022-10-31T15:19:47.047Z,16.62
2022-10-31T15:22:36.074Z,16.54
2022-10-31T15:28:23.510Z,16.35
2022-10-31T15:34:08.226Z,16.17
2022-10-31T15:42:26.734Z,15.98
2022-10-31T15:45:24.644Z,15.86
2022-10-31T15:51:16.301Z,15.68
2022-10-31T15:56:46.691Z,15.54
2022-10-31T16:02:20.275Z,15.36
2022-10-31T16:05:20.608Z,15.24
2022-10-31T16:08:26.537Z,15.17
2022-10-31T16:11:22.336Z,15.07
2022-10-31T16:14:23.209Z,15.02
2022-10-31T16:17:13.081Z,14.91
2022-10-31T16:22:51.762Z,14.88
2022-10-31T16:25:41.288Z,14.79
2022-10-31T16:28:33.070Z,14.75
2022-10-31T16:37:01.616Z,14.72
2022-10-31T16:42:33.706Z,14.53
2022-10-31T16:45:24.574Z,14.37
2022-10-31T16:53:52.347Z,14.44
2022-10-31T16:59:23.183Z,14.32
2022-10-31T17:05:11.795Z,14.33
2022-10-31T17:10:46.689Z,14.32
2022-10-31T17:16:17.732Z,14.38
2022-10-31T17:22:04.416Z,14.49
2022-10-31T17:27:33.563Z,14.05
2022-10-31T17:35:56.745Z,13.93
2022-10-31T17:41:34.346Z,14.02
2022-10-31T17:47:09.781Z,13.81
2022-10-31T17:52:36.543Z,13.76
2022-10-31T17:58:08.096Z,13.73
2022-10-31T18:03:45.046Z,13.68
2022-10-31T18:14:53.073Z,13.80
2022-10-31T18:20:29.565Z,13.76
2022-10-31T18:26:06.256Z,13.77
2022-10-31T18:40:04.102Z,14.00
2022-10-31T18:45:45.944Z,13.82
2022-10-31T18:53:54.200Z,13.82
2022-10-31T18:56:43.956Z,13.83
2022-10-31T19:02:18.998Z,13.78
2022-10-31T19:05:07.843Z,13.74
2022-10-31T19:07:57.550Z,13.67
2022-10-31T19:13:32.219Z,13.66
2022-10-31T19:16:21.440Z,13.80
2022-10-31T19:21:58.174Z,13.77
2022-10-31T19:32:59.613Z,14.11
2022-10-31T19:41:26.708Z,14.31
2022-10-31T19:46:59.403Z,14.29
2022-10-31T19:52:27.879Z,14.65
2022-10-31T19:58:04.379Z,14.77
2022-10-31T20:03:39.698Z,14.50
2022-10-31T20:09:13.597Z,14.92
2022-10-31T20:14:46.161Z,14.41
2022-10-31T20:20:23.790Z,14.45
2022-10-31T20:25:58.926Z,14.30
2022-10-31T20:34:23.765Z,14.09
2022-10-31T20:37:11.936Z,13.82
2022-10-31T20:40:00.472Z,13.61
2022-10-31T20:45:39.404Z,13.41
2022-10-31T20:48:27.455Z,13.32
2022-10-31T20:54:07.672Z,13.18
2022-10-31T20:59:54.125Z,13.06
2022-10-31T21:05:25.692Z,13.02
2022-10-31T21:13:55.694Z,12.96
2022-10-31T21:16:45.669Z,12.91
2022-10-31T21:22:25.458Z,12.91
2022-10-31T21:28:05.691Z,12.95
2022-10-31T21:30:54.216Z,12.81
2022-10-31T21:36:28.186Z,12.84
2022-10-31T21:39:38.487Z,12.81
2022-10-31T21:45:24.976Z,12.80
2022-10-31T21:51:13.678Z,12.78
2022-10-31T21:54:19.935Z,12.69
2022-10-31T21:57:08.031Z,12.74
2022-10-31T22:02:46.492Z,12.75
2022-10-31T22:08:26.474Z,12.73
2022-10-31T22:14:02.081Z,12.71
2022-10-31T22:16:51.038Z,12.64
2022-10-31T22:25:12.989Z,12.62
2022-10-31T22:28:04.911Z,12.64
2022-10-31T22:33:37.499Z,12.57
2022-10-31T22:36:27.111Z,12.50
2022-10-31T22:42:04.957Z,12.70
2022-10-31T22:47:37.644Z,12.54
2022-10-31T22:53:08.599Z,12.68
2022-10-31T22:58:44.697Z,12.66
2022-10-31T23:04:24.634Z,12.96
2022-10-31T23:07:15.772Z,12.73
2022-10-31T23:10:07.126Z,12.56
2022-10-31T23:15:40.255Z,12.75
2022-10-31T23:21:17.963Z,12.78
2022-10-31T23:27:11.013Z,12.91
2022-10-31T23:30:02.757Z,12.95
2022-10-31T23:35:32.933Z,13.07
2022-10-31T23:41:04.563Z,13.08
2022-10-31T23:46:39.808Z,13.15
2022-10-31T23:52:16.451Z,13.19
2022-10-31T23:58:07.551Z,13.28
